createdAt,value
2018-09-16T00:00:12.509Z,36.8
2018-09-16T00:01:13.931Z,37.0
2018-09-16T00:02:15.315Z,37.0
2018-09-16T00:03:19.052Z,36.7
2018-09-16T00:04:21.273Z,36.9
2018-09-16T00:05:22.674Z,36.8
2018-09-16T00:06:24.055Z,37.1
2018-09-16T00:07:25.440Z,37.2
2018-09-16T00:08:26.831Z,36.9
2018-09-16T00:09:28.209Z,36.8
2018-09-16T00:10:29.594Z,37.1
2018-09-16T00:11:30.973Z,36.8
2018-09-16T00:12:32.355Z,37.0
2018-09-16T00:13:33.769Z,37.1
2018-09-16T00:14:35.207Z,36.9
2018-09-16T00:15:36.489Z,36.8
2018-09-16T00:16:37.885Z,36.9
2018-09-16T00:17:39.264Z,36.9
2018-09-16T00:18:40.730Z,36.7
2018-09-16T00:19:42.119Z,36.9
2018-09-16T00:20:43.502Z,36.8
2018-09-16T00:21:44.915Z,37.0
2018-09-16T00:22:46.276Z,37.0
2018-09-16T00:23:49.088Z,37.2
2018-09-16T00:24:50.469Z,37.2
2018-09-16T00:25:51.855Z,37.1
2018-09-16T00:26:53.244Z,37.0
2018-09-16T00:27:54.770Z,37.0
2018-09-16T00:28:56.125Z,36.7
2018-09-16T00:29:57.509Z,36.7
2018-09-16T00:30:59.795Z,37.1
2018-09-16T00:32:02.084Z,37.1
2018-09-16T00:33:03.452Z,37.1
2018-09-16T00:34:04.832Z,37.0
2018-09-16T00:35:06.217Z,37.0
2018-09-16T00:36:07.638Z,37.1
2018-09-16T00:37:09.007Z,37.0
2018-09-16T00:38:12.242Z,37.1
2018-09-16T00:39:13.621Z,37.2
2018-09-16T00:40:15.004Z,36.7
2018-09-16T00:41:16.379Z,37.1
2018-09-16T00:42:17.766Z,37.1
2018-09-16T00:43:19.808Z,37.0
2018-09-16T00:44:21.194Z,37.1
2018-09-16T00:45:22.577Z,37.1
2018-09-16T00:46:23.959Z,37.0
2018-09-16T00:47:25.343Z,37.2
2018-09-16T00:48:27.363Z,37.3
2018-09-16T00:49:28.765Z,36.9
2018-09-16T00:50:30.160Z,37.0
2018-09-16T00:51:31.546Z,37.4
2018-09-16T00:52:32.922Z,37.3
2018-09-16T00:53:34.852Z,37.1
2018-09-16T00:54:36.237Z,37.1
2018-09-16T00:55:37.632Z,37.2
2018-09-16T00:56:39.077Z,37.1
2018-09-16T00:57:40.459Z,36.9
2018-09-16T00:58:43.077Z,37.3
2018-09-16T00:59:44.458Z,37.2
2018-09-16T01:00:45.843Z,37.1
2018-09-16T01:01:47.243Z,36.9
2018-09-16T01:02:48.612Z,37.0
2018-09-16T01:03:49.995Z,37.3
2018-09-16T01:04:51.387Z,36.9
2018-09-16T01:05:52.761Z,36.9
2018-09-16T01:06:54.146Z,37.3
2018-09-16T01:07:55.537Z,37.0
2018-09-16T01:08:56.921Z,37.2
2018-09-16T01:09:58.307Z,37.2
2018-09-16T01:10:59.691Z,37.3
2018-09-16T01:12:01.091Z,37.3
2018-09-16T01:13:03.010Z,37.3
2018-09-16T01:14:04.395Z,37.3
2018-09-16T01:15:05.774Z,37.4
2018-09-16T01:16:07.155Z,37.0
2018-09-16T01:17:08.546Z,37.2
2018-09-16T01:18:09.941Z,37.3
2018-09-16T01:19:12.557Z,37.1
2018-09-16T01:20:13.937Z,37.2
2018-09-16T01:21:15.323Z,37.2
2018-09-16T01:22:16.697Z,37.0
2018-09-16T01:23:19.308Z,37.2
2018-09-16T01:24:21.464Z,37.3
2018-09-16T01:25:22.851Z,37.3
2018-09-16T01:26:24.224Z,36.9
2018-09-16T01:27:25.609Z,36.9
2018-09-16T01:28:27.004Z,37.0
2018-09-16T01:29:28.375Z,37.1
2018-09-16T01:30:29.755Z,37.2
2018-09-16T01:31:33.905Z,37.2
2018-09-16T01:32:35.288Z,37.3
2018-09-16T01:33:37.268Z,37.3
2018-09-16T01:34:38.660Z,37.2
2018-09-16T01:35:40.027Z,37.2
2018-09-16T01:36:42.873Z,37.0
2018-09-16T01:37:44.267Z,37.2
2018-09-16T01:38:45.662Z,37.1
2018-09-16T01:39:47.057Z,37.2
2018-09-16T01:40:48.421Z,37.2
2018-09-16T01:41:49.805Z,37.2
2018-09-16T01:42:51.188Z,37.2
2018-09-16T01:43:52.608Z,37.3
2018-09-16T01:44:54.010Z,37.2
2018-09-16T01:45:55.409Z,37.2
2018-09-16T01:46:56.792Z,37.4
2018-09-16T01:47:58.178Z,37.2
2018-09-16T01:48:59.558Z,37.4
2018-09-16T01:50:00.942Z,37.3
2018-09-16T01:51:02.322Z,37.5
2018-09-16T01:52:03.718Z,37.3
2018-09-16T01:53:05.098Z,37.0
2018-09-16T01:54:06.478Z,36.9
2018-09-16T01:55:07.856Z,37.2
2018-09-16T01:56:09.248Z,36.9
2018-09-16T01:57:10.630Z,37.2
2018-09-16T01:58:12.018Z,37.2
2018-09-16T01:59:13.407Z,37.3
2018-09-16T02:00:14.776Z,37.2
2018-09-16T02:01:16.156Z,37.2
2018-09-16T02:02:17.535Z,37.2
2018-09-16T02:03:19.043Z,37.3
2018-09-16T02:04:20.421Z,37.6
2018-09-16T02:05:21.809Z,37.5
2018-09-16T02:06:23.189Z,37.5
2018-09-16T02:07:24.567Z,37.4
2018-09-16T02:08:25.955Z,37.3
2018-09-16T02:09:27.340Z,37.4
2018-09-16T02:10:28.712Z,37.6
2018-09-16T02:11:30.107Z,37.5
2018-09-16T02:12:31.476Z,37.3
2018-09-16T02:13:33.451Z,37.4
2018-09-16T02:14:34.825Z,37.0
2018-09-16T02:15:36.922Z,37.3
2018-09-16T02:16:38.298Z,37.3
2018-09-16T02:17:40.635Z,37.3
2018-09-16T02:18:42.075Z,37.4
2018-09-16T02:19:44.108Z,37.5
2018-09-16T02:20:45.485Z,37.3
2018-09-16T02:21:46.868Z,37.3
2018-09-16T02:22:48.248Z,37.3
2018-09-16T02:23:49.619Z,37.3
2018-09-16T02:24:51.001Z,37.4
2018-09-16T02:25:52.435Z,37.5
2018-09-16T02:26:53.809Z,37.2
2018-09-16T02:27:55.197Z,37.3
2018-09-16T02:28:56.560Z,37.6
2018-09-16T02:29:57.949Z,37.5
2018-09-16T02:30:59.339Z,37.5
2018-09-16T02:32:00.718Z,37.6
2018-09-16T02:33:02.110Z,37.5
2018-09-16T02:34:04.556Z,36.9
2018-09-16T02:35:05.940Z,37.4
2018-09-16T02:36:07.324Z,37.4
2018-09-16T02:37:08.703Z,37.5
2018-09-16T02:38:10.077Z,37.3
2018-09-16T02:39:11.471Z,37.5
2018-09-16T02:40:12.855Z,37.5
2018-09-16T02:41:14.241Z,37.6
2018-09-16T02:42:15.609Z,37.4
2018-09-16T02:43:19.514Z,37.5
2018-09-16T02:44:20.844Z,37.6
2018-09-16T02:45:22.227Z,37.4
2018-09-16T02:46:23.606Z,37.4
2018-09-16T02:47:25.943Z,37.4
2018-09-16T02:48:27.325Z,37.5
2018-09-16T02:49:28.710Z,37.2
2018-09-16T02:50:30.097Z,37.4
2018-09-16T02:51:31.466Z,37.5
2018-09-16T02:52:32.840Z,37.3
2018-09-16T02:53:34.221Z,37.6
2018-09-16T02:54:35.599Z,37.7
2018-09-16T02:55:36.988Z,37.5
2018-09-16T02:56:38.363Z,37.5
2018-09-16T02:57:39.744Z,37.5
2018-09-16T02:58:41.191Z,37.5
2018-09-16T02:59:42.500Z,37.5
2018-09-16T03:00:43.914Z,37.4
2018-09-16T03:01:45.223Z,37.6
2018-09-16T03:02:47.490Z,37.6
2018-09-16T03:03:49.854Z,37.5
2018-09-16T03:04:51.227Z,37.5
2018-09-16T03:05:52.611Z,37.5
2018-09-16T03:06:56.117Z,37.6
2018-09-16T03:07:57.512Z,37.5
2018-09-16T03:08:58.886Z,37.5
2018-09-16T03:10:00.266Z,37.6
2018-09-16T03:11:01.651Z,37.6
2018-09-16T03:12:03.025Z,37.5
2018-09-16T03:13:04.420Z,37.5
2018-09-16T03:14:05.788Z,37.5
2018-09-16T03:15:07.171Z,37.5
2018-09-16T03:16:08.559Z,37.5
2018-09-16T03:17:09.933Z,37.5
2018-09-16T03:18:11.312Z,37.5
2018-09-16T03:19:12.696Z,37.6
2018-09-16T03:20:14.068Z,37.7
2018-09-16T03:21:15.447Z,37.5
2018-09-16T03:22:16.826Z,37.5
2018-09-16T03:23:18.252Z,37.6
2018-09-16T03:24:19.629Z,37.6
2018-09-16T03:25:21.029Z,37.5
2018-09-16T03:26:22.401Z,37.5
2018-09-16T03:27:23.785Z,37.6
2018-09-16T03:28:25.156Z,37.5
2018-09-16T03:29:26.553Z,37.4
2018-09-16T03:30:27.927Z,37.4
2018-09-16T03:31:29.314Z,37.5
2018-09-16T03:32:30.701Z,37.5
2018-09-16T03:33:32.077Z,37.5
2018-09-16T03:34:33.459Z,37.4
2018-09-16T03:35:37.027Z,37.4
2018-09-16T03:36:38.401Z,37.1
2018-09-16T03:37:39.803Z,37.1
2018-09-16T03:38:41.187Z,37.4
2018-09-16T03:39:42.570Z,37.2
2018-09-16T03:40:43.991Z,37.5
2018-09-16T03:41:47.629Z,37.5
2018-09-16T03:42:49.006Z,37.5
2018-09-16T03:43:50.385Z,37.4
2018-09-16T03:44:51.769Z,37.4
2018-09-16T03:45:53.142Z,37.5
2018-09-16T03:46:54.530Z,37.4
2018-09-16T03:47:55.906Z,37.5
2018-09-16T03:48:57.273Z,37.5
2018-09-16T03:49:58.645Z,37.4
2018-09-16T03:51:00.128Z,37.5
2018-09-16T03:52:01.440Z,37.5
2018-09-16T03:53:02.812Z,37.5
2018-09-16T03:54:06.029Z,37.5
2018-09-16T03:55:06.800Z,37.5
2018-09-16T03:56:08.190Z,37.5
2018-09-16T03:57:09.592Z,37.5
2018-09-16T03:58:10.966Z,37.5
2018-09-16T03:59:12.339Z,37.5
2018-09-16T04:00:13.731Z,37.5
2018-09-16T04:01:15.119Z,37.4
2018-09-16T04:02:18.813Z,37.5
2018-09-16T04:03:20.181Z,37.4
2018-09-16T04:04:21.582Z,37.5
2018-09-16T04:05:22.960Z,37.4
2018-09-16T04:06:24.345Z,37.5
2018-09-16T04:07:26.634Z,37.5
2018-09-16T04:08:27.084Z,37.4
2018-09-16T04:09:29.075Z,37.5
2018-09-16T04:10:30.458Z,37.5
2018-09-16T04:11:31.860Z,37.5
2018-09-16T04:12:33.235Z,37.3
2018-09-16T04:13:35.125Z,37.3
2018-09-16T04:14:35.958Z,37.5
2018-09-16T04:15:37.329Z,37.6
2018-09-16T04:16:38.708Z,37.5
2018-09-16T04:17:40.088Z,37.5
2018-09-16T04:18:41.468Z,37.5
2018-09-16T04:19:42.848Z,37.3
2018-09-16T04:20:44.235Z,37.4
2018-09-16T04:21:45.615Z,37.4
2018-09-16T04:22:46.993Z,37.4
2018-09-16T04:23:48.794Z,37.4
2018-09-16T04:24:50.171Z,37.5
2018-09-16T04:25:51.609Z,37.5
2018-09-16T04:26:52.983Z,37.4
2018-09-16T04:27:54.383Z,37.5
2018-09-16T04:28:55.756Z,37.5
2018-09-16T04:29:57.744Z,37.5
2018-09-16T04:30:59.827Z,37.3
2018-09-16T04:32:01.198Z,37.5
2018-09-16T04:33:02.568Z,37.5
2018-09-16T04:34:03.949Z,37.5
2018-09-16T04:35:05.331Z,37.5
2018-09-16T04:36:06.706Z,37.5
2018-09-16T04:37:08.092Z,37.4
2018-09-16T04:38:09.470Z,37.5
2018-09-16T04:39:10.848Z,37.4
2018-09-16T04:40:12.231Z,37.3
2018-09-16T04:41:13.607Z,37.5
2018-09-16T04:42:15.675Z,37.3
2018-09-16T04:43:19.362Z,37.5
2018-09-16T04:44:20.750Z,37.5
2018-09-16T04:45:22.135Z,37.5
2018-09-16T04:46:23.521Z,37.4
2018-09-16T04:47:24.915Z,37.5
2018-09-16T04:48:26.268Z,37.5
2018-09-16T04:49:27.682Z,37.5
2018-09-16T04:50:29.067Z,37.5
2018-09-16T04:51:30.434Z,37.5
2018-09-16T04:52:31.818Z,37.5
2018-09-16T04:53:33.200Z,37.5
2018-09-16T04:54:34.589Z,37.5
2018-09-16T04:55:35.968Z,37.5
2018-09-16T04:56:38.431Z,37.3
2018-09-16T04:57:39.813Z,37.3
2018-09-16T04:58:41.186Z,37.5
2018-09-16T04:59:42.558Z,37.4
2018-09-16T05:00:43.983Z,37.5
2018-09-16T05:01:45.363Z,37.5
2018-09-16T05:02:46.740Z,37.5
2018-09-16T05:03:48.153Z,37.5
2018-09-16T05:04:49.502Z,37.5
2018-09-16T05:05:50.890Z,37.5
2018-09-16T05:06:52.263Z,37.3
2018-09-16T05:07:53.635Z,37.5
2018-09-16T05:08:55.016Z,37.5
2018-09-16T05:09:56.396Z,37.5
2018-09-16T05:10:57.788Z,37.5
2018-09-16T05:11:59.166Z,37.5
2018-09-16T05:13:00.549Z,37.5
2018-09-16T05:14:01.924Z,37.5
2018-09-16T05:15:03.305Z,37.5
2018-09-16T05:16:04.685Z,37.5
2018-09-16T05:17:06.797Z,37.5
2018-09-16T05:18:08.164Z,37.5
2018-09-16T05:19:09.542Z,37.5
2018-09-16T05:20:10.936Z,37.5
2018-09-16T05:21:12.323Z,37.5
2018-09-16T05:22:13.700Z,37.5
2018-09-16T05:23:15.082Z,37.5
2018-09-16T05:24:16.459Z,37.5
2018-09-16T05:25:18.908Z,37.3
2018-09-16T05:26:20.931Z,37.4
2018-09-16T05:27:22.314Z,37.5
2018-09-16T05:28:23.689Z,37.5
2018-09-16T05:29:25.066Z,37.4
2018-09-16T05:30:26.449Z,37.4
2018-09-16T05:31:27.860Z,37.5
2018-09-16T05:32:29.208Z,37.5
2018-09-16T05:33:30.586Z,37.5
2018-09-16T05:34:31.964Z,37.5
2018-09-16T05:35:33.347Z,37.3
2018-09-16T05:36:34.728Z,37.4
2018-09-16T05:37:36.104Z,37.5
2018-09-16T05:38:38.326Z,37.4
2018-09-16T05:39:40.665Z,37.4
2018-09-16T05:40:42.055Z,37.4
2018-09-16T05:41:43.435Z,37.4
2018-09-16T05:42:44.820Z,37.3
2018-09-16T05:43:46.197Z,37.3
2018-09-16T05:44:47.575Z,37.2
2018-09-16T05:45:48.958Z,37.2
2018-09-16T05:46:50.341Z,37.2
2018-09-16T05:47:51.725Z,37.0
2018-09-16T05:48:53.105Z,37.0
2018-09-16T05:49:54.502Z,37.1
2018-09-16T05:50:55.886Z,37.0
2018-09-16T05:51:57.268Z,37.0
2018-09-16T05:52:58.683Z,36.9
2018-09-16T05:54:00.030Z,37.2
2018-09-16T05:55:01.414Z,37.1
2018-09-16T05:56:02.797Z,37.0
2018-09-16T05:57:04.168Z,37.2
2018-09-16T05:58:05.565Z,37.2
2018-09-16T05:59:06.953Z,37.1
2018-09-16T06:00:08.320Z,37.0
2018-09-16T06:01:10.242Z,37.0
2018-09-16T06:02:11.625Z,36.9
2018-09-16T06:03:13.744Z,36.9
2018-09-16T06:04:15.119Z,36.7
2018-09-16T06:05:16.498Z,36.7
2018-09-16T06:06:17.885Z,36.7
2018-09-16T06:07:20.477Z,36.5
2018-09-16T06:08:22.607Z,36.5
2018-09-16T06:09:23.985Z,36.6
2018-09-16T06:10:25.371Z,36.7
2018-09-16T06:11:26.747Z,36.5
2018-09-16T06:12:28.128Z,36.3
2018-09-16T06:13:30.278Z,36.4
2018-09-16T06:14:31.663Z,36.3
2018-09-16T06:15:33.035Z,36.3
2018-09-16T06:16:34.427Z,36.5
2018-09-16T06:17:35.811Z,36.3
2018-09-16T06:18:37.190Z,36.2
2018-09-16T06:19:38.582Z,36.2
2018-09-16T06:20:39.969Z,36.2
2018-09-16T06:21:41.936Z,36.3
2018-09-16T06:22:43.377Z,36.0
2018-09-16T06:23:44.641Z,36.1
2018-09-16T06:24:46.020Z,36.0
2018-09-16T06:25:47.402Z,36.0
2018-09-16T06:26:48.781Z,35.8
2018-09-16T06:27:51.840Z,36.0
2018-09-16T06:28:53.238Z,36.1
2018-09-16T06:29:54.608Z,36.0
2018-09-16T06:30:55.991Z,36.1
2018-09-16T06:31:57.366Z,36.2
2018-09-16T06:32:58.753Z,36.1
2018-09-16T06:34:00.141Z,35.6
2018-09-16T06:35:01.526Z,35.4
2018-09-16T06:36:02.948Z,35.4
2018-09-16T06:37:04.327Z,35.4
2018-09-16T06:38:05.715Z,35.4
2018-09-16T06:39:07.097Z,35.4
2018-09-16T06:40:08.477Z,35.3
2018-09-16T06:41:12.148Z,35.3
2018-09-16T06:42:13.480Z,35.0
2018-09-16T06:43:14.854Z,34.9
2018-09-16T06:44:16.248Z,34.8
2018-09-16T06:45:17.629Z,34.9
2018-09-16T06:46:19.625Z,34.8
2018-09-16T06:47:22.376Z,35.0
2018-09-16T06:48:23.770Z,34.9
2018-09-16T06:49:25.158Z,35.2
2018-09-16T06:50:26.527Z,34.8
2018-09-16T06:51:27.907Z,34.4
2018-09-16T06:52:29.286Z,34.7
2018-09-16T06:53:31.446Z,34.4
2018-09-16T06:54:32.853Z,34.3
2018-09-16T06:55:34.211Z,34.1
2018-09-16T06:56:35.597Z,34.3
2018-09-16T06:57:36.977Z,33.9
2018-09-16T06:58:38.366Z,34.4
2018-09-16T06:59:39.746Z,34.2
2018-09-16T07:00:41.155Z,33.8
2018-09-16T07:01:42.510Z,34.1
2018-09-16T07:02:43.889Z,34.2
2018-09-16T07:03:45.273Z,34.4
2018-09-16T07:04:46.661Z,33.7
2018-09-16T07:05:48.048Z,34.2
2018-09-16T07:06:49.439Z,34.1
2018-09-16T07:07:50.818Z,33.9
2018-09-16T07:08:53.490Z,34.1
2018-09-16T07:09:54.867Z,33.9
2018-09-16T07:10:56.253Z,34.0
2018-09-16T07:11:57.634Z,33.7
2018-09-16T07:12:59.009Z,33.9
2018-09-16T07:14:00.416Z,33.9
2018-09-16T07:15:04.579Z,33.9
2018-09-16T07:16:05.962Z,33.7
2018-09-16T07:17:07.337Z,33.7
2018-09-16T07:18:08.726Z,33.6
2018-09-16T07:19:10.111Z,33.7
2018-09-16T07:20:11.546Z,33.7
2018-09-16T07:21:12.892Z,33.6
2018-09-16T07:22:14.261Z,33.5
2018-09-16T07:23:15.647Z,33.5
2018-09-16T07:24:17.039Z,33.3
2018-09-16T07:25:18.412Z,33.3
2018-09-16T07:26:19.807Z,33.2
2018-09-16T07:27:21.214Z,33.2
2018-09-16T07:28:22.562Z,33.4
2018-09-16T07:29:23.941Z,33.1
2018-09-16T07:30:25.326Z,33.1
2018-09-16T07:31:26.715Z,33.0
2018-09-16T07:32:28.153Z,33.0
2018-09-16T07:33:31.387Z,33.2
2018-09-16T07:34:32.073Z,32.9
2018-09-16T07:35:33.468Z,32.8
2018-09-16T07:36:34.848Z,32.9
2018-09-16T07:37:36.233Z,32.9
2018-09-16T07:38:37.635Z,32.8
2018-09-16T07:39:39.018Z,32.8
2018-09-16T07:40:40.393Z,32.6
2018-09-16T07:41:41.780Z,32.7
2018-09-16T07:42:43.175Z,32.6
2018-09-16T07:43:44.553Z,32.6
2018-09-16T07:44:45.936Z,32.4
2018-09-16T07:45:47.325Z,32.8
2018-09-16T07:46:48.704Z,32.3
2018-09-16T07:47:50.084Z,32.6
2018-09-16T07:48:51.485Z,32.4
2018-09-16T07:49:52.862Z,32.4
2018-09-16T07:50:54.251Z,32.5
2018-09-16T07:51:55.649Z,32.3
2018-09-16T07:52:57.120Z,32.5
2018-09-16T07:53:59.067Z,32.3
2018-09-16T07:55:00.459Z,32.2
2018-09-16T07:56:01.842Z,32.1
2018-09-16T07:57:03.236Z,32.2
2018-09-16T07:58:04.619Z,32.2
2018-09-16T07:59:05.995Z,32.3
2018-09-16T08:00:07.389Z,32.0
2018-09-16T08:01:08.766Z,32.1
2018-09-16T08:02:10.151Z,32.1
2018-09-16T08:03:12.570Z,32.2
2018-09-16T08:04:14.602Z,31.7
2018-09-16T08:05:15.984Z,31.8
2018-09-16T08:06:17.403Z,31.8
2018-09-16T08:07:18.735Z,31.6
2018-09-16T08:08:20.094Z,32.0
2018-09-16T08:09:21.479Z,31.9
2018-09-16T08:10:22.863Z,31.9
2018-09-16T08:11:25.851Z,32.0
2018-09-16T08:12:27.238Z,31.9
2018-09-16T08:13:30.521Z,32.0
2018-09-16T08:14:31.897Z,31.4
2018-09-16T08:15:33.972Z,31.4
2018-09-16T08:16:36.041Z,31.5
2018-09-16T08:17:37.428Z,31.5
2018-09-16T08:18:38.820Z,31.4
2018-09-16T08:19:40.195Z,31.7
2018-09-16T08:20:41.563Z,31.8
2018-09-16T08:21:42.958Z,31.8
2018-09-16T08:22:44.339Z,31.3
2018-09-16T08:23:48.515Z,31.4
2018-09-16T08:24:49.924Z,31.4
2018-09-16T08:25:51.302Z,31.4
2018-09-16T08:26:52.681Z,31.1
2018-09-16T08:27:54.069Z,31.1
2018-09-16T08:28:55.466Z,30.7
2018-09-16T08:29:56.846Z,30.9
2018-09-16T08:30:58.224Z,30.9
2018-09-16T08:31:59.623Z,30.7
2018-09-16T08:33:01.011Z,30.7
2018-09-16T08:34:02.400Z,30.7
2018-09-16T08:35:06.149Z,30.8
2018-09-16T08:36:07.530Z,30.8
2018-09-16T08:37:08.923Z,30.7
2018-09-16T08:38:10.332Z,30.7
2018-09-16T08:39:11.708Z,30.8
2018-09-16T08:40:13.094Z,30.7
2018-09-16T08:41:14.484Z,30.7
2018-09-16T08:42:15.870Z,30.8
2018-09-16T08:43:18.794Z,30.9
2018-09-16T08:44:20.176Z,30.8
2018-09-16T08:45:21.570Z,30.5
2018-09-16T08:46:22.961Z,30.3
2018-09-16T08:47:26.312Z,30.3
2018-09-16T08:48:27.733Z,30.2
2018-09-16T08:49:29.132Z,30.3
2018-09-16T08:50:30.628Z,30.1
2018-09-16T08:51:32.018Z,30.2
2018-09-16T08:52:33.398Z,30.2
2018-09-16T08:53:36.382Z,30.1
2018-09-16T08:54:37.767Z,30.0
2018-09-16T08:55:39.143Z,30.1
2018-09-16T08:56:40.527Z,29.9
2018-09-16T08:57:41.914Z,30.0
2018-09-16T08:58:43.301Z,29.8
2018-09-16T08:59:44.695Z,29.9
2018-09-16T09:00:46.094Z,29.9
2018-09-16T09:01:47.484Z,29.7
2018-09-16T09:02:50.069Z,29.6
2018-09-16T09:03:50.804Z,29.8
2018-09-16T09:04:52.182Z,29.7
2018-09-16T09:05:53.564Z,29.8
2018-09-16T09:06:54.954Z,29.7
2018-09-16T09:07:56.333Z,29.8
2018-09-16T09:08:57.728Z,29.8
2018-09-16T09:10:00.054Z,29.9
2018-09-16T09:11:01.440Z,29.9
2018-09-16T09:12:02.829Z,29.4
2018-09-16T09:13:04.207Z,29.5
2018-09-16T09:14:07.076Z,29.6
2018-09-16T09:15:07.672Z,29.6
2018-09-16T09:16:09.066Z,29.6
2018-09-16T09:17:10.449Z,29.5
2018-09-16T09:18:11.839Z,29.8
2018-09-16T09:19:13.233Z,29.7
2018-09-16T09:20:14.611Z,29.6
2018-09-16T09:21:16.006Z,29.5
2018-09-16T09:22:17.403Z,29.4
2018-09-16T09:23:18.874Z,29.0
2018-09-16T09:24:20.196Z,29.0
2018-09-16T09:25:21.598Z,29.1
2018-09-16T09:26:22.981Z,29.0
2018-09-16T09:27:24.362Z,29.0
2018-09-16T09:28:25.761Z,28.9
2018-09-16T09:29:27.144Z,28.9
2018-09-16T09:30:28.528Z,29.2
2018-09-16T09:31:29.924Z,29.0
2018-09-16T09:32:31.307Z,29.3
2018-09-16T09:33:32.693Z,29.0
2018-09-16T09:34:34.087Z,29.0
2018-09-16T09:35:35.512Z,28.8
2018-09-16T09:36:36.855Z,29.2
2018-09-16T09:37:38.237Z,29.2
2018-09-16T09:38:39.623Z,29.0
2018-09-16T09:39:41.016Z,29.0
2018-09-16T09:40:42.408Z,29.0
2018-09-16T09:41:43.793Z,29.0
2018-09-16T09:42:45.224Z,28.9
2018-09-16T09:43:47.138Z,28.9
2018-09-16T09:44:48.511Z,28.9
2018-09-16T09:45:49.901Z,29.0
2018-09-16T09:46:51.284Z,28.8
2018-09-16T09:47:52.687Z,28.9
2018-09-16T09:48:54.069Z,28.8
2018-09-16T09:49:57.619Z,28.8
2018-09-16T09:50:59.046Z,28.6
2018-09-16T09:52:00.401Z,28.6
2018-09-16T09:53:01.816Z,28.7
2018-09-16T09:54:03.192Z,28.5
2018-09-16T09:55:04.587Z,28.7
2018-09-16T09:56:06.001Z,28.6
2018-09-16T09:57:07.377Z,28.5
2018-09-16T09:58:08.766Z,28.1
2018-09-16T09:59:10.244Z,28.5
2018-09-16T10:00:11.556Z,28.4
2018-09-16T10:01:12.936Z,28.2
2018-09-16T10:02:14.335Z,28.2
2018-09-16T10:03:16.740Z,28.2
2018-09-16T10:04:18.153Z,28.2
2018-09-16T10:05:19.541Z,28.1
2018-09-16T10:06:20.927Z,28.2
2018-09-16T10:07:22.315Z,28.0
2018-09-16T10:08:23.688Z,28.4
2018-09-16T10:09:25.082Z,28.2
2018-09-16T10:10:27.202Z,28.4
2018-09-16T10:11:29.737Z,28.1
2018-09-16T10:12:31.124Z,28.1
2018-09-16T10:13:33.001Z,28.3
2018-09-16T10:14:34.475Z,27.9
2018-09-16T10:15:35.774Z,28.1
2018-09-16T10:16:39.528Z,28.1
2018-09-16T10:17:40.948Z,28.0
2018-09-16T10:18:42.286Z,28.0
2018-09-16T10:19:43.686Z,27.9
2018-09-16T10:20:45.073Z,28.0
2018-09-16T10:21:46.461Z,28.1
2018-09-16T10:22:47.895Z,28.0
2018-09-16T10:23:49.235Z,27.8
2018-09-16T10:24:51.177Z,27.8
2018-09-16T10:25:52.576Z,28.0
2018-09-16T10:26:53.967Z,27.8
2018-09-16T10:27:55.369Z,27.9
2018-09-16T10:28:56.764Z,27.9
2018-09-16T10:29:58.158Z,27.8
2018-09-16T10:30:59.541Z,27.8
2018-09-16T10:32:00.930Z,27.6
2018-09-16T10:33:02.315Z,27.7
2018-09-16T10:34:03.699Z,27.7
2018-09-16T10:35:05.096Z,27.7
2018-09-16T10:36:06.472Z,27.8
2018-09-16T10:37:07.857Z,27.7
2018-09-16T10:38:09.247Z,27.6
2018-09-16T10:39:10.644Z,27.8
2018-09-16T10:40:12.029Z,27.7
2018-09-16T10:41:13.428Z,27.6
2018-09-16T10:42:14.826Z,27.6
2018-09-16T10:43:18.685Z,27.4
2018-09-16T10:44:20.118Z,27.5
2018-09-16T10:45:21.507Z,27.5
2018-09-16T10:46:22.893Z,27.6
2018-09-16T10:47:24.289Z,27.4
2018-09-16T10:48:25.752Z,27.4
2018-09-16T10:49:29.683Z,27.5
2018-09-16T10:50:31.654Z,27.4
2018-09-16T10:51:33.042Z,27.4
2018-09-16T10:52:34.431Z,27.2
2018-09-16T10:53:37.424Z,27.4
2018-09-16T10:54:38.818Z,27.2
2018-09-16T10:55:41.160Z,27.2
2018-09-16T10:56:42.570Z,27.3
2018-09-16T10:57:43.958Z,27.4
2018-09-16T10:58:45.349Z,27.3
2018-09-16T10:59:46.736Z,27.4
2018-09-16T11:00:48.116Z,27.2
2018-09-16T11:01:49.503Z,27.3
2018-09-16T11:02:50.892Z,27.2
2018-09-16T11:03:53.790Z,27.1
2018-09-16T11:04:54.394Z,27.1
2018-09-16T11:05:55.784Z,27.2
2018-09-16T11:07:00.612Z,27.0
2018-09-16T11:08:02.119Z,27.0
2018-09-16T11:09:03.406Z,27.1
2018-09-16T11:10:04.793Z,27.0
2018-09-16T11:11:06.175Z,27.1
2018-09-16T11:12:07.567Z,26.9
2018-09-16T11:13:08.953Z,27.1
2018-09-16T11:14:10.368Z,27.0
2018-09-16T11:15:11.751Z,27.1
2018-09-16T11:16:13.139Z,26.9
2018-09-16T11:17:14.526Z,27.2
2018-09-16T11:18:15.919Z,27.0
2018-09-16T11:19:17.301Z,26.8
2018-09-16T11:20:20.628Z,26.8
2018-09-16T11:21:22.013Z,26.9
2018-09-16T11:22:23.404Z,26.8
2018-09-16T11:23:24.800Z,26.8
2018-09-16T11:24:26.190Z,26.8
2018-09-16T11:25:27.608Z,26.8
2018-09-16T11:26:31.381Z,26.8
2018-09-16T11:27:32.773Z,26.8
2018-09-16T11:28:34.153Z,26.7
2018-09-16T11:29:35.539Z,26.9
2018-09-16T11:30:36.922Z,26.8
2018-09-16T11:31:38.312Z,26.8
2018-09-16T11:32:41.543Z,26.7
2018-09-16T11:33:42.932Z,27.0
2018-09-16T11:34:44.319Z,27.0
2018-09-16T11:35:45.705Z,27.0
2018-09-16T11:36:47.121Z,27.0
2018-09-16T11:37:48.487Z,27.0
2018-09-16T11:38:49.918Z,26.8
2018-09-16T11:39:51.296Z,27.0
2018-09-16T11:40:52.678Z,27.1
2018-09-16T11:41:54.057Z,27.0
2018-09-16T11:42:55.457Z,26.8
2018-09-16T11:43:56.852Z,26.9
2018-09-16T11:44:58.274Z,27.0
2018-09-16T11:46:01.159Z,27.0
2018-09-16T11:47:02.564Z,26.8
2018-09-16T11:48:03.967Z,27.0
2018-09-16T11:49:05.354Z,26.9
2018-09-16T11:50:06.732Z,26.9
2018-09-16T11:51:08.265Z,26.8
2018-09-16T11:52:11.071Z,26.8
2018-09-16T11:53:12.451Z,26.8
2018-09-16T11:54:13.841Z,26.9
2018-09-16T11:55:15.219Z,26.8
2018-09-16T11:56:16.601Z,26.9
2018-09-16T11:57:17.975Z,27.0
2018-09-16T11:58:19.410Z,26.8
2018-09-16T11:59:20.805Z,26.9
2018-09-16T12:00:22.186Z,26.8
2018-09-16T12:01:23.599Z,26.9
2018-09-16T12:02:24.991Z,26.7
2018-09-16T12:03:26.360Z,26.9
2018-09-16T12:04:27.754Z,26.9
2018-09-16T12:05:29.131Z,26.9
2018-09-16T12:06:30.527Z,26.7
2018-09-16T12:07:31.917Z,26.8
2018-09-16T12:08:33.930Z,26.8
2018-09-16T12:09:35.316Z,26.7
2018-09-16T12:10:37.402Z,26.9
2018-09-16T12:11:38.866Z,26.8
2018-09-16T12:12:40.167Z,26.9
2018-09-16T12:13:42.543Z,26.8
2018-09-16T12:14:42.893Z,26.9
2018-09-16T12:15:44.278Z,26.9
2018-09-16T12:16:45.658Z,26.8
2018-09-16T12:17:47.059Z,26.8
2018-09-16T12:18:48.430Z,26.8
2018-09-16T12:19:52.112Z,26.9
2018-09-16T12:20:53.499Z,26.9
2018-09-16T12:21:54.888Z,27.0
2018-09-16T12:22:56.273Z,27.1
2018-09-16T12:23:57.644Z,27.0
2018-09-16T12:24:59.037Z,27.2
2018-09-16T12:26:00.428Z,27.0
2018-09-16T12:27:03.431Z,27.0
2018-09-16T12:28:04.817Z,26.9
2018-09-16T12:29:06.200Z,27.0
2018-09-16T12:30:07.589Z,27.0
2018-09-16T12:31:08.972Z,27.1
2018-09-16T12:32:10.353Z,27.0
2018-09-16T12:33:12.674Z,27.0
2018-09-16T12:34:14.065Z,27.0
2018-09-16T12:35:15.444Z,27.0
2018-09-16T12:36:16.829Z,26.9
2018-09-16T12:37:18.216Z,27.0
2018-09-16T12:38:19.594Z,27.0
2018-09-16T12:39:20.975Z,27.0
2018-09-16T12:40:22.372Z,27.0
2018-09-16T12:41:23.753Z,27.1
2018-09-16T12:42:25.163Z,27.1
2018-09-16T12:43:26.554Z,27.2
2018-09-16T12:44:27.939Z,27.0
2018-09-16T12:45:29.341Z,27.0
2018-09-16T12:46:30.714Z,27.2
2018-09-16T12:47:32.115Z,27.2
2018-09-16T12:48:33.546Z,27.1
2018-09-16T12:49:34.937Z,27.2
2018-09-16T12:50:36.312Z,27.1
2018-09-16T12:51:37.731Z,27.3
2018-09-16T12:52:39.094Z,27.1
2018-09-16T12:53:40.495Z,27.1
2018-09-16T12:54:42.813Z,27.1
2018-09-16T12:55:44.196Z,27.2
2018-09-16T12:56:45.580Z,27.3
2018-09-16T12:57:46.957Z,27.2
2018-09-16T12:58:48.345Z,27.2
2018-09-16T12:59:49.718Z,27.2
2018-09-16T13:00:51.101Z,27.2
2018-09-16T13:01:52.477Z,27.4
2018-09-16T13:02:54.773Z,27.3
2018-09-16T13:03:55.191Z,27.4
2018-09-16T13:04:56.577Z,27.4
2018-09-16T13:05:58.555Z,27.3
2018-09-16T13:06:59.940Z,27.4
2018-09-16T13:08:01.322Z,27.5
2018-09-16T13:09:03.487Z,27.6
2018-09-16T13:10:04.861Z,27.6
2018-09-16T13:11:06.239Z,27.4
2018-09-16T13:12:07.615Z,27.5
2018-09-16T13:13:09.039Z,27.5
2018-09-16T13:14:10.388Z,27.5
2018-09-16T13:15:11.777Z,27.6
2018-09-16T13:16:15.073Z,27.6
2018-09-16T13:17:16.463Z,27.7
2018-09-16T13:18:17.835Z,27.7
2018-09-16T13:19:21.211Z,27.6
2018-09-16T13:20:22.593Z,27.6
2018-09-16T13:21:23.992Z,27.6
2018-09-16T13:22:25.374Z,27.8
2018-09-16T13:23:26.755Z,27.6
2018-09-16T13:24:28.132Z,27.7
2018-09-16T13:25:29.584Z,27.6
2018-09-16T13:26:30.967Z,27.7
2018-09-16T13:27:32.367Z,27.7
2018-09-16T13:28:33.817Z,27.7
2018-09-16T13:29:35.156Z,27.6
2018-09-16T13:30:36.554Z,27.6
2018-09-16T13:31:37.928Z,27.8
2018-09-16T13:32:39.311Z,27.7
2018-09-16T13:33:41.341Z,27.7
2018-09-16T13:34:42.727Z,27.7
2018-09-16T13:35:44.126Z,27.7
2018-09-16T13:36:45.508Z,27.8
2018-09-16T13:37:46.899Z,27.9
2018-09-16T13:38:48.274Z,27.9